createdAt,value
2023-05-22T00:00:41.316Z,16.76
2023-05-22T00:01:44.314Z,16.75
2023-05-22T00:02:47.245Z,16.74
2023-05-22T00:03:50.963Z,16.78
2023-05-22T00:04:54.495Z,16.77
2023-05-22T00:05:59.064Z,16.77
2023-05-22T00:07:01.858Z,16.73
2023-05-22T00:08:11.979Z,16.67
2023-05-22T00:09:15.354Z,16.72
2023-05-22T00:10:18.220Z,16.68
2023-05-22T00:11:21.294Z,16.64
2023-05-22T00:12:23.997Z,16.58
2023-05-22T00:13:26.832Z,16.55
2023-05-22T00:14:29.669Z,16.54
2023-05-22T00:15:34.004Z,16.65
2023-05-22T00:16:36.704Z,16.63
2023-05-22T00:17:39.528Z,16.60
2023-05-22T00:18:42.971Z,16.58
2023-05-22T00:19:46.524Z,16.71
2023-05-22T00:20:50.494Z,16.83
2023-05-22T00:21:54.423Z,16.77
2023-05-22T00:22:58.130Z,16.68
2023-05-22T00:24:02.168Z,16.66
2023-05-22T00:25:06.250Z,16.63
2023-05-22T00:26:08.952Z,16.59
2023-05-22T00:27:12.182Z,16.58
2023-05-22T00:28:14.924Z,16.55
2023-05-22T00:29:17.643Z,16.47
2023-05-22T00:30:20.528Z,16.49
2023-05-22T00:31:24.357Z,16.48
2023-05-22T00:32:27.469Z,16.55
2023-05-22T00:33:30.359Z,16.54
2023-05-22T00:34:33.064Z,16.52
2023-05-22T00:35:35.855Z,16.53
2023-05-22T00:36:38.575Z,16.46
2023-05-22T00:37:41.525Z,16.38
2023-05-22T00:38:44.519Z,16.37
2023-05-22T00:39:47.211Z,16.34
2023-05-22T00:40:50.190Z,16.34
2023-05-22T00:41:52.981Z,16.37
2023-05-22T00:42:55.928Z,16.40
2023-05-22T00:43:58.737Z,16.37
2023-05-22T00:45:01.531Z,16.30
2023-05-22T00:46:04.428Z,16.38
2023-05-22T00:47:08.195Z,16.41
2023-05-22T00:48:12.793Z,16.38
2023-05-22T00:49:15.517Z,16.55
2023-05-22T00:50:19.442Z,16.41
2023-05-22T00:51:22.966Z,16.43
2023-05-22T00:52:25.945Z,16.40
2023-05-22T00:53:30.183Z,16.40
2023-05-22T00:54:33.526Z,16.43
2023-05-22T00:55:36.298Z,16.32
2023-05-22T00:56:39.225Z,16.28
2023-05-22T00:57:42.192Z,16.40
2023-05-22T00:58:45.087Z,16.33
2023-05-22T00:59:49.025Z,16.36
2023-05-22T01:00:51.672Z,16.36
2023-05-22T01:01:56.046Z,16.34
2023-05-22T01:02:59.602Z,16.35
2023-05-22T01:04:05.234Z,16.27
2023-05-22T01:05:08.326Z,16.32
2023-05-22T01:06:13.115Z,16.37
2023-05-22T01:07:19.048Z,16.44
2023-05-22T01:08:22.088Z,16.41
2023-05-22T01:09:25.047Z,16.27
2023-05-22T01:10:29.172Z,16.36
2023-05-22T01:12:00.671Z,16.45
2023-05-22T01:13:09.203Z,16.34
2023-05-22T01:14:44.392Z,16.26
2023-05-22T01:16:02.180Z,16.30
2023-05-22T01:17:35.110Z,16.33
2023-05-22T01:19:21.985Z,16.32
2023-05-22T01:20:38.470Z,16.31
2023-05-22T01:22:08.095Z,16.22
2023-05-22T01:23:20.632Z,16.21
2023-05-22T01:24:53.498Z,16.21
2023-05-22T01:26:14.345Z,16.20
2023-05-22T01:27:28.750Z,16.10
2023-05-22T01:28:54.991Z,16.18
2023-05-22T01:30:35.142Z,16.26
2023-05-22T01:31:41.828Z,16.28
2023-05-22T01:32:48.478Z,16.22
2023-05-22T01:34:02.730Z,16.24
2023-05-22T01:35:11.187Z,16.24
2023-05-22T01:36:20.506Z,16.37
2023-05-22T01:37:24.594Z,16.38
2023-05-22T01:38:29.060Z,16.37
2023-05-22T01:39:32.206Z,16.38
2023-05-22T01:40:34.948Z,16.28
2023-05-22T01:41:37.785Z,16.25
2023-05-22T01:42:41.480Z,16.23
2023-05-22T01:43:45.753Z,16.34
2023-05-22T01:44:49.471Z,16.38
2023-05-22T01:45:52.179Z,16.31
2023-05-22T01:46:55.061Z,16.32
2023-05-22T01:47:58.630Z,16.30
2023-05-22T01:49:01.530Z,16.30
2023-05-22T01:50:05.952Z,16.39
2023-05-22T01:51:41.016Z,16.41
2023-05-22T01:53:24.403Z,16.42
2023-05-22T01:54:50.463Z,16.42
2023-05-22T01:56:01.954Z,16.56
2023-05-22T01:57:28.967Z,16.42
2023-05-22T01:58:49.926Z,16.38
2023-05-22T02:00:11.936Z,16.34
2023-05-22T02:01:16.114Z,16.30
2023-05-22T02:02:21.748Z,16.34
2023-05-22T02:03:31.339Z,16.34
2023-05-22T02:04:39.839Z,16.25
2023-05-22T02:05:44.617Z,16.32
2023-05-22T02:06:48.099Z,16.40
2023-05-22T02:07:52.972Z,16.42
2023-05-22T02:08:56.236Z,16.40
2023-05-22T02:10:00.252Z,16.38
2023-05-22T02:11:04.662Z,16.40
2023-05-22T02:12:08.637Z,16.39
2023-05-22T02:13:11.426Z,16.38
2023-05-22T02:14:14.214Z,16.31
2023-05-22T02:15:17.095Z,16.41
2023-05-22T02:16:22.489Z,16.51
2023-05-22T02:17:26.363Z,16.61
2023-05-22T02:18:31.162Z,16.57
2023-05-22T02:19:36.206Z,16.57
2023-05-22T02:20:39.210Z,16.55
2023-05-22T02:21:42.469Z,16.60
2023-05-22T02:22:47.059Z,16.69
2023-05-22T02:23:49.967Z,16.55
2023-05-22T02:24:52.652Z,16.49
2023-05-22T02:25:55.898Z,16.43
2023-05-22T02:26:58.621Z,16.43
2023-05-22T02:28:01.553Z,16.35
2023-05-22T02:29:04.367Z,16.38
2023-05-22T02:30:07.781Z,16.51
2023-05-22T02:31:10.461Z,16.41
2023-05-22T02:32:13.389Z,16.36
2023-05-22T02:33:18.140Z,16.42
2023-05-22T02:34:20.878Z,16.45
2023-05-22T02:35:23.750Z,16.56
2023-05-22T02:36:26.953Z,16.45
2023-05-22T02:37:29.622Z,16.43
2023-05-22T02:38:32.319Z,16.31
2023-05-22T02:39:34.982Z,16.22
2023-05-22T02:40:37.939Z,16.23
2023-05-22T02:41:40.738Z,16.17
2023-05-22T02:42:43.527Z,16.25
2023-05-22T02:43:46.228Z,16.27
2023-05-22T02:44:48.932Z,16.18
2023-05-22T02:45:51.615Z,16.18
2023-05-22T02:46:54.405Z,16.22
2023-05-22T02:47:57.210Z,16.27
2023-05-22T02:49:00.186Z,16.29
2023-05-22T02:50:03.189Z,16.30
2023-05-22T02:51:06.182Z,16.24
2023-05-22T02:52:08.838Z,16.26
2023-05-22T02:53:11.626Z,16.19
2023-05-22T02:54:16.147Z,16.10
2023-05-22T02:55:19.017Z,16.05
2023-05-22T02:56:22.288Z,15.95
2023-05-22T02:57:25.017Z,15.92
2023-05-22T02:58:27.836Z,15.87
2023-05-22T02:59:30.440Z,15.89
2023-05-22T03:00:33.225Z,15.91
2023-05-22T03:01:36.728Z,15.86
2023-05-22T03:02:39.471Z,15.79
2023-05-22T03:03:43.869Z,15.87
2023-05-22T03:04:46.846Z,15.80
2023-05-22T03:05:50.241Z,15.84
2023-05-22T03:06:52.919Z,15.74
2023-05-22T03:07:56.159Z,15.79
2023-05-22T03:08:58.839Z,15.78
2023-05-22T03:10:01.542Z,15.68
2023-05-22T03:11:04.281Z,15.73
2023-05-22T03:12:07.382Z,15.93
2023-05-22T03:13:10.043Z,15.93
2023-05-22T03:14:12.761Z,15.93
2023-05-22T03:15:15.578Z,15.96
2023-05-22T03:16:18.304Z,15.93
2023-05-22T03:17:20.945Z,16.01
2023-05-22T03:18:25.911Z,16.06
2023-05-22T03:19:30.061Z,16.04
2023-05-22T03:20:32.943Z,16.03
2023-05-22T03:21:35.663Z,16.02
2023-05-22T03:22:38.408Z,16.03
2023-05-22T03:23:41.213Z,16.14
2023-05-22T03:24:44.051Z,16.26
2023-05-22T03:25:47.723Z,16.08
2023-05-22T03:26:50.404Z,16.00
2023-05-22T03:27:53.068Z,15.99
2023-05-22T03:28:56.729Z,16.01
2023-05-22T03:29:59.466Z,15.99
2023-05-22T03:31:02.144Z,15.95
2023-05-22T03:32:05.175Z,16.06
2023-05-22T03:33:08.014Z,16.07
2023-05-22T03:34:11.044Z,16.06
2023-05-22T03:35:16.751Z,16.04
2023-05-22T03:36:21.541Z,16.04
2023-05-22T03:37:24.180Z,15.91
2023-05-22T03:38:26.909Z,15.94
2023-05-22T03:39:29.632Z,16.04
2023-05-22T03:40:32.235Z,15.97
2023-05-22T03:41:34.990Z,16.00
2023-05-22T03:42:37.707Z,16.04
2023-05-22T03:43:42.108Z,16.14
2023-05-22T03:44:47.195Z,16.15
2023-05-22T03:45:49.896Z,16.14
2023-05-22T03:46:52.534Z,16.22
2023-05-22T03:47:55.234Z,16.29
2023-05-22T03:48:58.082Z,16.24
2023-05-22T03:50:00.789Z,16.27
2023-05-22T03:51:03.505Z,16.29
2023-05-22T03:52:06.469Z,16.24
2023-05-22T03:53:09.455Z,16.30
2023-05-22T03:54:12.211Z,16.24
2023-05-22T03:55:15.071Z,16.38
2023-05-22T03:56:17.724Z,16.41
2023-05-22T03:57:20.368Z,16.37
2023-05-22T03:58:25.832Z,16.50
2023-05-22T03:59:28.591Z,16.42
2023-05-22T04:00:31.933Z,16.47
2023-05-22T04:01:34.847Z,16.46
2023-05-22T04:02:45.252Z,16.47
2023-05-22T04:03:48.081Z,16.42
2023-05-22T04:04:50.810Z,16.46
2023-05-22T04:05:54.073Z,16.46
2023-05-22T04:06:58.349Z,16.41
2023-05-22T04:08:01.098Z,16.42
2023-05-22T04:09:04.680Z,16.40
2023-05-22T04:10:07.984Z,16.38
2023-05-22T04:11:11.225Z,16.34
2023-05-22T04:12:13.881Z,16.44
2023-05-22T04:13:17.638Z,16.51
2023-05-22T04:14:20.300Z,16.47
2023-05-22T04:15:24.251Z,16.51
2023-05-22T04:16:27.096Z,16.45
2023-05-22T04:17:33.562Z,16.36
2023-05-22T04:18:36.671Z,16.49
2023-05-22T04:19:39.499Z,16.52
2023-05-22T04:20:45.353Z,16.55
2023-05-22T04:21:49.361Z,16.49
2023-05-22T04:22:52.106Z,16.45
2023-05-22T04:23:54.999Z,16.47
2023-05-22T04:24:57.932Z,16.31
2023-05-22T04:26:02.662Z,16.40
2023-05-22T04:27:06.122Z,16.49
2023-05-22T04:28:09.548Z,16.55
2023-05-22T04:29:14.676Z,16.56
2023-05-22T04:30:18.615Z,16.62
2023-05-22T04:31:23.303Z,16.69
2023-05-22T04:32:26.502Z,16.69
2023-05-22T04:33:29.189Z,16.67
2023-05-22T04:34:32.134Z,16.66
2023-05-22T04:35:35.456Z,16.77
2023-05-22T04:36:39.041Z,16.81
2023-05-22T04:37:42.472Z,16.78
2023-05-22T04:38:47.778Z,16.82
2023-05-22T04:39:53.820Z,16.90
2023-05-22T04:40:57.286Z,16.86
2023-05-22T04:42:05.980Z,16.95
2023-05-22T04:43:08.755Z,16.98
2023-05-22T04:44:11.533Z,17.14
2023-05-22T04:45:14.208Z,17.09
2023-05-22T04:46:17.039Z,17.17
2023-05-22T04:47:20.293Z,17.29
2023-05-22T04:48:23.300Z,17.22
2023-05-22T04:49:26.495Z,17.19
2023-05-22T04:50:32.606Z,17.34
2023-05-22T04:51:35.553Z,17.27
2023-05-22T04:52:38.738Z,17.27
2023-05-22T04:53:41.411Z,17.31
2023-05-22T04:54:46.595Z,17.23
2023-05-22T04:55:49.397Z,17.02
2023-05-22T04:56:52.393Z,17.08
2023-05-22T04:57:56.512Z,17.16
2023-05-22T04:59:00.167Z,17.08
2023-05-22T05:00:04.678Z,17.17
2023-05-22T05:01:07.381Z,17.17
2023-05-22T05:02:10.076Z,17.16
2023-05-22T05:03:12.915Z,17.09
2023-05-22T05:04:15.686Z,17.10
2023-05-22T05:05:18.279Z,16.99
2023-05-22T05:06:21.831Z,16.95
2023-05-22T05:07:25.306Z,17.04
2023-05-22T05:08:28.019Z,17.13
2023-05-22T05:09:30.756Z,17.22
2023-05-22T05:10:33.473Z,17.29
2023-05-22T05:11:36.358Z,17.41
2023-05-22T05:12:39.107Z,17.37
2023-05-22T05:13:43.117Z,17.40
2023-05-22T05:14:45.733Z,17.42
2023-05-22T05:15:48.417Z,17.40
2023-05-22T05:16:54.976Z,17.41
2023-05-22T05:17:57.723Z,17.29
2023-05-22T05:19:00.951Z,17.18
2023-05-22T05:20:07.326Z,17.17
2023-05-22T05:21:10.298Z,17.34
2023-05-22T05:22:12.890Z,17.63
2023-05-22T05:23:15.736Z,17.66
2023-05-22T05:24:18.732Z,17.72
2023-05-22T05:25:21.373Z,17.77
2023-05-22T05:26:24.372Z,17.87
2023-05-22T05:27:27.225Z,17.93
2023-05-22T05:28:29.895Z,18.07
2023-05-22T05:29:32.742Z,18.13
2023-05-22T05:30:35.409Z,18.26
2023-05-22T05:31:38.188Z,18.25
2023-05-22T05:32:41.066Z,18.22
2023-05-22T05:33:43.861Z,18.30
2023-05-22T05:34:46.487Z,18.40
2023-05-22T05:35:50.563Z,18.47
2023-05-22T05:36:53.194Z,18.53
2023-05-22T05:37:55.885Z,18.60
2023-05-22T05:38:59.071Z,18.56
2023-05-22T05:40:01.730Z,18.47
2023-05-22T05:41:04.500Z,18.43
2023-05-22T05:42:07.416Z,18.39
2023-05-22T05:43:10.189Z,18.41
2023-05-22T05:44:13.105Z,18.48
2023-05-22T05:45:16.221Z,18.46
2023-05-22T05:46:19.724Z,18.35
2023-05-22T05:47:24.484Z,18.28
2023-05-22T05:48:27.348Z,18.15
2023-05-22T05:49:30.125Z,18.05
2023-05-22T05:50:32.832Z,17.96
2023-05-22T05:51:36.418Z,18.07
2023-05-22T05:52:39.134Z,18.13
2023-05-22T05:53:42.109Z,18.28
2023-05-22T05:54:47.612Z,18.45
2023-05-22T05:55:50.322Z,18.65
2023-05-22T05:56:53.106Z,18.73
2023-05-22T05:57:56.013Z,18.81
2023-05-22T05:58:58.907Z,18.80
2023-05-22T06:00:01.812Z,18.73
2023-05-22T06:01:04.808Z,18.76
2023-05-22T06:02:07.879Z,18.81
2023-05-22T06:03:10.705Z,18.72
2023-05-22T06:04:14.596Z,18.86
2023-05-22T06:05:19.538Z,18.89
2023-05-22T06:06:26.307Z,18.80
2023-05-22T06:07:29.917Z,18.74
2023-05-22T06:08:32.625Z,18.79
2023-05-22T06:09:36.493Z,18.86
2023-05-22T06:10:39.771Z,18.82
2023-05-22T06:11:42.706Z,18.84
2023-05-22T06:12:45.575Z,18.78
2023-05-22T06:13:48.314Z,18.64
2023-05-22T06:14:51.185Z,18.56
2023-05-22T06:15:54.245Z,18.42
2023-05-22T06:16:57.568Z,18.55
2023-05-22T06:18:02.630Z,18.60
2023-05-22T06:19:05.429Z,18.70
2023-05-22T06:20:09.414Z,18.93
2023-05-22T06:21:12.552Z,18.83
2023-05-22T06:22:15.220Z,18.73
2023-05-22T06:23:18.021Z,18.80
2023-05-22T06:24:20.922Z,18.90
2023-05-22T06:25:26.175Z,19.01
2023-05-22T06:26:28.970Z,19.23
2023-05-22T06:27:32.230Z,19.44
2023-05-22T06:28:34.877Z,19.57
2023-05-22T06:29:37.537Z,19.63
2023-05-22T06:30:40.615Z,19.70
2023-05-22T06:31:43.476Z,19.82
2023-05-22T06:32:46.296Z,19.79
2023-05-22T06:33:49.326Z,19.95
2023-05-22T06:34:52.041Z,20.10
2023-05-22T06:35:55.661Z,20.29
2023-05-22T06:36:58.364Z,20.40
2023-05-22T06:38:00.996Z,20.53
2023-05-22T06:39:03.822Z,20.64
2023-05-22T06:40:08.150Z,20.77
2023-05-22T06:41:10.814Z,20.92
2023-05-22T06:42:13.540Z,21.09
2023-05-22T06:43:16.583Z,21.21
2023-05-22T06:44:19.284Z,21.25
2023-05-22T06:45:22.115Z,21.30
2023-05-22T06:46:26.153Z,21.38
2023-05-22T06:47:29.379Z,21.27
2023-05-22T06:48:35.257Z,20.92
2023-05-22T06:49:38.057Z,20.93
2023-05-22T06:50:41.107Z,21.08
2023-05-22T06:51:43.997Z,21.07
2023-05-22T06:52:46.891Z,20.87
2023-05-22T06:53:49.724Z,20.74
2023-05-22T06:54:52.767Z,20.84
2023-05-22T06:55:56.240Z,20.76
2023-05-22T06:56:59.693Z,20.84
2023-05-22T06:58:02.539Z,20.75
2023-05-22T06:59:06.373Z,20.69
2023-05-22T07:00:12.078Z,20.83
2023-05-22T07:01:14.939Z,20.81
2023-05-22T07:02:17.543Z,20.67
2023-05-22T07:03:20.478Z,20.73
2023-05-22T07:04:23.197Z,20.70
2023-05-22T07:05:26.093Z,20.75
2023-05-22T07:06:29.291Z,20.75
2023-05-22T07:07:32.307Z,20.66
2023-05-22T07:08:35.082Z,20.68
2023-05-22T07:09:37.945Z,20.71
2023-05-22T07:10:40.876Z,20.44
2023-05-22T07:11:44.131Z,20.40
2023-05-22T07:12:46.801Z,20.31
2023-05-22T07:13:49.581Z,20.08
2023-05-22T07:14:53.471Z,20.11
2023-05-22T07:15:56.070Z,19.87
2023-05-22T07:16:58.802Z,19.68
2023-05-22T07:18:02.007Z,19.77
2023-05-22T07:19:04.989Z,19.61
2023-05-22T07:20:09.981Z,19.64
2023-05-22T07:21:13.063Z,19.75
2023-05-22T07:22:15.961Z,19.82
2023-05-22T07:23:18.778Z,19.75
2023-05-22T07:24:21.482Z,19.79
2023-05-22T07:25:24.284Z,19.69
2023-05-22T07:26:29.354Z,19.57
2023-05-22T07:27:32.194Z,19.51
2023-05-22T07:28:35.053Z,19.48
2023-05-22T07:29:38.198Z,19.58
2023-05-22T07:30:41.648Z,19.53
2023-05-22T07:31:44.603Z,19.42
2023-05-22T07:32:48.507Z,19.22
2023-05-22T07:33:51.347Z,19.33
2023-05-22T07:34:54.026Z,19.03
2023-05-22T07:35:56.752Z,18.99
2023-05-22T07:37:00.151Z,18.41
2023-05-22T07:38:02.976Z,18.17
2023-05-22T07:39:05.771Z,17.76
2023-05-22T07:40:09.983Z,17.65
2023-05-22T07:41:13.196Z,18.08
2023-05-22T07:42:16.267Z,18.23
2023-05-22T07:43:18.951Z,18.54
2023-05-22T07:44:21.933Z,18.76
2023-05-22T07:45:24.743Z,18.63
2023-05-22T07:46:27.598Z,18.33
2023-05-22T07:47:30.412Z,18.22
2023-05-22T07:48:33.189Z,18.45
2023-05-22T07:49:36.366Z,18.56
2023-05-22T07:50:39.105Z,18.29
2023-05-22T07:51:41.985Z,18.14
2023-05-22T07:52:44.837Z,18.18
2023-05-22T07:53:47.639Z,18.13
2023-05-22T07:54:50.491Z,18.43
2023-05-22T07:55:53.162Z,18.87
2023-05-22T07:56:56.377Z,19.22
2023-05-22T07:57:59.138Z,19.51
2023-05-22T07:59:01.810Z,19.75
2023-05-22T08:00:14.153Z,19.88
2023-05-22T08:01:17.331Z,19.97
2023-05-22T08:02:20.149Z,19.89
2023-05-22T08:03:24.287Z,20.06
2023-05-22T08:04:27.938Z,19.98
2023-05-22T08:05:30.807Z,20.35
2023-05-22T08:06:35.436Z,20.33
2023-05-22T08:07:38.366Z,20.53
2023-05-22T08:08:41.206Z,21.03
2023-05-22T08:09:46.303Z,21.41
2023-05-22T08:11:03.132Z,21.47
2023-05-22T08:12:07.578Z,21.60
2023-05-22T08:13:12.673Z,21.68
2023-05-22T08:14:15.697Z,21.88
2023-05-22T08:15:18.563Z,21.89
2023-05-22T08:16:21.327Z,21.94
2023-05-22T08:17:24.050Z,21.87
2023-05-22T08:18:28.621Z,22.12
2023-05-22T08:19:32.206Z,22.42
2023-05-22T08:20:35.039Z,22.66
2023-05-22T08:21:37.924Z,22.51
2023-05-22T08:22:42.009Z,22.77
2023-05-22T08:23:44.755Z,22.89
2023-05-22T08:24:47.376Z,22.95
2023-05-22T08:25:50.433Z,23.09
2023-05-22T08:26:55.305Z,23.43
2023-05-22T08:27:57.950Z,23.78
2023-05-22T08:29:01.203Z,24.04
2023-05-22T08:30:04.911Z,24.16
2023-05-22T08:31:07.921Z,24.41
2023-05-22T08:32:10.600Z,24.57
2023-05-22T08:33:13.315Z,24.69
2023-05-22T08:34:16.048Z,24.84
2023-05-22T08:35:18.674Z,25.16
2023-05-22T08:36:23.573Z,25.31
2023-05-22T08:37:26.375Z,25.56
2023-05-22T08:38:29.077Z,25.31
2023-05-22T08:39:31.765Z,25.32
2023-05-22T08:40:39.508Z,25.64
2023-05-22T08:41:45.459Z,25.63
2023-05-22T08:42:48.739Z,25.60
2023-05-22T08:43:51.572Z,25.22
2023-05-22T08:44:55.671Z,25.06
2023-05-22T08:46:06.201Z,25.24
2023-05-22T08:47:11.561Z,25.91
2023-05-22T08:48:16.714Z,26.13
2023-05-22T08:49:23.994Z,26.20
2023-05-22T08:50:27.475Z,26.26
2023-05-22T08:51:34.093Z,26.15
2023-05-22T08:52:50.788Z,25.77
2023-05-22T08:53:56.765Z,25.64
2023-05-22T08:55:01.078Z,25.57
2023-05-22T08:56:06.311Z,25.68
2023-05-22T08:57:09.052Z,25.66
2023-05-22T08:58:12.307Z,25.72
2023-05-22T08:59:16.791Z,25.77
2023-05-22T09:00:21.686Z,25.52
2023-05-22T09:01:24.989Z,25.33
2023-05-22T09:02:28.558Z,25.47
2023-05-22T09:03:35.229Z,25.38
2023-05-22T09:04:37.991Z,25.07
2023-05-22T09:05:41.614Z,25.28
2023-05-22T09:06:47.578Z,25.35
2023-05-22T09:07:50.336Z,25.11
2023-05-22T09:08:53.497Z,25.09
2023-05-22T09:09:56.767Z,25.08
2023-05-22T09:10:59.966Z,24.63
2023-05-22T09:12:02.803Z,24.73
2023-05-22T09:13:09.084Z,24.69
2023-05-22T09:14:12.535Z,24.92
2023-05-22T09:15:16.970Z,25.52
2023-05-22T09:16:20.195Z,25.93
2023-05-22T09:17:22.989Z,26.27
2023-05-22T09:18:29.943Z,26.41
2023-05-22T09:19:33.001Z,26.47
2023-05-22T09:20:36.691Z,26.76
2023-05-22T09:21:39.470Z,26.62
2023-05-22T09:22:42.105Z,27.06
2023-05-22T09:23:50.217Z,27.21
2023-05-22T09:24:53.089Z,27.36
2023-05-22T09:25:57.552Z,27.49
2023-05-22T09:27:04.390Z,27.39
2023-05-22T09:28:07.621Z,27.68
2023-05-22T09:29:10.587Z,27.74
2023-05-22T09:30:17.811Z,27.99
2023-05-22T09:31:21.242Z,28.08
2023-05-22T09:32:24.431Z,28.12
2023-05-22T09:33:27.203Z,27.59
2023-05-22T09:34:30.312Z,28.04
2023-05-22T09:35:33.103Z,27.94
2023-05-22T09:36:36.366Z,28.24
2023-05-22T09:37:40.197Z,28.23
2023-05-22T09:38:43.232Z,28.32
2023-05-22T09:39:47.720Z,28.47
2023-05-22T09:40:54.565Z,28.80
2023-05-22T09:42:01.757Z,28.82
2023-05-22T09:43:11.635Z,29.03
2023-05-22T09:44:16.327Z,29.04
2023-05-22T09:45:26.714Z,28.76
2023-05-22T09:46:29.870Z,28.38
2023-05-22T09:47:34.482Z,28.29
2023-05-22T09:48:37.532Z,28.60
2023-05-22T09:49:44.741Z,28.95
2023-05-22T09:50:49.122Z,28.97
2023-05-22T09:51:54.422Z,28.73
2023-05-22T09:53:00.922Z,28.31
2023-05-22T09:54:06.925Z,27.90
2023-05-22T09:55:10.469Z,28.14
2023-05-22T09:56:19.221Z,27.97
2023-05-22T09:57:28.130Z,27.61
2023-05-22T09:58:33.191Z,27.08
2023-05-22T09:59:40.349Z,27.00
2023-05-22T10:00:44.611Z,26.65
2023-05-22T10:01:48.579Z,26.95
2023-05-22T10:02:59.326Z,26.89
2023-05-22T10:04:04.545Z,26.99
2023-05-22T10:05:10.171Z,27.09
2023-05-22T10:06:14.795Z,27.21
2023-05-22T10:07:22.111Z,26.97
2023-05-22T10:08:39.144Z,26.88
2023-05-22T10:09:43.532Z,27.02
2023-05-22T10:10:55.354Z,27.15
2023-05-22T10:12:01.047Z,26.84
2023-05-22T10:13:05.141Z,27.06
2023-05-22T10:14:09.330Z,26.77
2023-05-22T10:15:13.113Z,26.62
2023-05-22T10:16:16.983Z,26.90
2023-05-22T10:17:20.708Z,26.90
2023-05-22T10:18:23.670Z,26.68
2023-05-22T10:19:28.015Z,26.40
2023-05-22T10:20:31.245Z,26.30
2023-05-22T10:21:37.232Z,26.65
2023-05-22T10:22:40.624Z,26.71
2023-05-22T10:23:44.631Z,26.44
2023-05-22T10:24:51.098Z,25.99
2023-05-22T10:25:55.271Z,26.88
2023-05-22T10:26:58.169Z,27.17
2023-05-22T10:28:00.954Z,27.45
2023-05-22T10:29:11.076Z,27.64
2023-05-22T10:30:36.794Z,27.58
2023-05-22T10:31:48.294Z,27.41
2023-05-22T10:33:06.533Z,27.66
2023-05-22T10:34:15.882Z,27.72
2023-05-22T10:35:56.981Z,27.73
2023-05-22T10:37:20.623Z,27.60
2023-05-22T10:38:49.674Z,27.94
2023-05-22T10:40:05.085Z,27.48
2023-05-22T10:41:08.434Z,27.55
2023-05-22T10:42:15.050Z,27.85
2023-05-22T10:43:17.761Z,28.48
2023-05-22T10:44:22.332Z,28.42
2023-05-22T10:45:27.661Z,28.31
2023-05-22T10:46:36.255Z,28.76
2023-05-22T10:47:39.039Z,28.62
2023-05-22T10:48:47.832Z,28.44
2023-05-22T10:50:04.178Z,28.16
2023-05-22T10:51:08.471Z,27.74
2023-05-22T10:52:11.861Z,28.24
2023-05-22T10:53:28.393Z,28.45
2023-05-22T10:54:41.289Z,28.13
2023-05-22T10:55:51.866Z,28.37
2023-05-22T10:57:10.445Z,28.23
2023-05-22T10:58:14.284Z,28.19
2023-05-22T10:59:16.914Z,28.99
2023-05-22T11:00:21.588Z,29.29
2023-05-22T11:01:27.603Z,29.08
2023-05-22T11:02:31.899Z,29.34
2023-05-22T11:04:00.962Z,29.15
2023-05-22T11:05:19.183Z,29.44
2023-05-22T11:06:49.980Z,28.78
2023-05-22T11:07:52.913Z,29.29
2023-05-22T11:08:56.704Z,28.18
2023-05-22T11:10:02.098Z,28.50
2023-05-22T11:11:14.266Z,28.70
2023-05-22T11:12:31.490Z,28.06
2023-05-22T11:13:34.660Z,28.38
2023-05-22T11:14:37.358Z,28.37
2023-05-22T11:15:45.844Z,27.59
2023-05-22T11:16:48.680Z,28.22
2023-05-22T11:17:52.031Z,28.53
2023-05-22T11:20:22.786Z,28.40
2023-05-22T11:21:25.820Z,28.73
2023-05-22T11:22:31.582Z,28.55
2023-05-22T11:23:35.704Z,28.21
2023-05-22T11:24:40.199Z,28.53
2023-05-22T11:25:43.136Z,28.72
2023-05-22T11:27:02.613Z,28.62
2023-05-22T11:28:06.693Z,28.58
2023-05-22T11:29:09.851Z,28.65
2023-05-22T11:30:13.362Z,28.62
2023-05-22T11:31:18.003Z,28.87
2023-05-22T11:32:22.616Z,28.88
2023-05-22T11:33:25.480Z,28.38
2023-05-22T11:34:28.561Z,28.43
2023-05-22T11:35:31.393Z,28.88
2023-05-22T11:36:35.029Z,28.89
2023-05-22T11:37:41.845Z,28.81
2023-05-22T11:38:44.942Z,29.17
2023-05-22T11:39:58.368Z,29.35
2023-05-22T11:41:01.032Z,29.36
2023-05-22T11:42:05.411Z,28.94
2023-05-22T11:43:08.157Z,28.98
2023-05-22T11:44:11.290Z,28.68
2023-05-22T11:45:14.982Z,28.87
2023-05-22T11:46:18.298Z,28.42
2023-05-22T11:47:21.085Z,28.81
2023-05-22T11:48:24.010Z,29.09
2023-05-22T11:49:27.841Z,28.64
2023-05-22T11:50:41.815Z,28.56
2023-05-22T11:51:49.226Z,28.99
2023-05-22T11:52:54.248Z,28.86
2023-05-22T11:53:57.660Z,28.70
2023-05-22T11:55:00.949Z,28.50
2023-05-22T11:56:05.170Z,28.45
2023-05-22T11:57:09.370Z,28.91
2023-05-22T11:58:12.162Z,28.82
2023-05-22T11:59:14.826Z,27.68
2023-05-22T12:00:18.252Z,28.19
2023-05-22T12:01:20.912Z,28.62
2023-05-22T12:02:23.749Z,28.52
2023-05-22T12:03:26.611Z,28.53
2023-05-22T12:04:29.894Z,28.18
2023-05-22T12:05:32.851Z,28.22
2023-05-22T12:06:35.758Z,27.94
2023-05-22T12:07:38.660Z,28.33
2023-05-22T12:08:42.959Z,28.47
2023-05-22T12:09:45.839Z,28.75
2023-05-22T12:10:52.912Z,28.70
2023-05-22T12:11:59.460Z,28.56
2023-05-22T12:13:02.276Z,28.70
2023-05-22T12:14:05.892Z,29.17
2023-05-22T12:15:09.224Z,29.00
2023-05-22T12:16:19.465Z,28.69
2023-05-22T12:17:23.246Z,28.02
2023-05-22T12:18:26.444Z,28.29
2023-05-22T12:19:29.307Z,27.73
2023-05-22T12:20:32.452Z,27.65
2023-05-22T12:21:37.020Z,28.05
2023-05-22T12:22:43.797Z,27.66
2023-05-22T12:23:52.324Z,28.05
2023-05-22T12:24:55.749Z,28.01
2023-05-22T12:25:59.520Z,28.09
2023-05-22T12:27:02.352Z,28.21
2023-05-22T12:28:07.564Z,28.28
2023-05-22T12:29:10.247Z,28.32
2023-05-22T12:30:14.334Z,28.43
2023-05-22T12:31:23.461Z,28.82
2023-05-22T12:32:29.990Z,28.74
2023-05-22T12:33:32.830Z,28.76
2023-05-22T12:34:36.869Z,28.88
2023-05-22T12:35:39.688Z,28.44
2023-05-22T12:36:44.322Z,28.93
2023-05-22T12:37:52.008Z,28.74
2023-05-22T12:38:57.889Z,29.26
2023-05-22T12:40:04.333Z,29.25
2023-05-22T12:41:07.317Z,29.05
2023-05-22T12:42:09.958Z,29.36
2023-05-22T12:43:13.101Z,29.29
2023-05-22T12:44:16.623Z,29.58
2023-05-22T12:45:19.532Z,29.03
2023-05-22T12:46:24.031Z,29.02
2023-05-22T12:47:26.977Z,29.06
2023-05-22T12:48:29.710Z,29.16
2023-05-22T12:49:32.395Z,29.41
2023-05-22T12:50:35.683Z,29.65
2023-05-22T12:51:38.442Z,29.52
2023-05-22T12:52:41.190Z,29.30
2023-05-22T12:53:44.039Z,29.25
2023-05-22T12:54:46.887Z,29.33
2023-05-22T12:55:49.810Z,29.26
2023-05-22T12:56:52.572Z,28.96
2023-05-22T12:57:55.404Z,28.90
2023-05-22T12:58:58.915Z,28.87
2023-05-22T13:00:01.656Z,29.02
2023-05-22T13:01:04.455Z,29.05
2023-05-22T13:02:07.395Z,29.09
2023-05-22T13:03:10.209Z,28.89
2023-05-22T13:04:13.044Z,28.96
2023-05-22T13:05:16.088Z,28.84
2023-05-22T13:06:19.726Z,28.82
2023-05-22T13:07:22.457Z,28.71
2023-05-22T13:08:25.672Z,29.01
2023-05-22T13:09:28.621Z,29.02
2023-05-22T13:10:31.500Z,28.65
2023-05-22T13:11:35.346Z,28.55
2023-05-22T13:12:38.158Z,28.40
2023-05-22T13:13:40.907Z,28.46
2023-05-22T13:14:43.681Z,28.51
2023-05-22T13:15:46.638Z,28.53
2023-05-22T13:16:49.382Z,28.46
2023-05-22T13:17:52.381Z,28.24
2023-05-22T13:18:55.164Z,28.54
2023-05-22T13:19:58.585Z,28.68
2023-05-22T13:21:01.449Z,28.40
2023-05-22T13:22:04.233Z,28.36
2023-05-22T13:23:07.548Z,28.53
2023-05-22T13:24:10.289Z,28.55
2023-05-22T13:25:13.665Z,28.53
2023-05-22T13:26:16.329Z,28.18
2023-05-22T13:27:19.246Z,28.35
2023-05-22T13:28:22.146Z,28.32
2023-05-22T13:29:25.067Z,28.36
2023-05-22T13:30:28.715Z,28.32
2023-05-22T13:31:35.894Z,28.21
2023-05-22T13:32:38.776Z,28.16
2023-05-22T13:33:41.611Z,28.24
2023-05-22T13:34:44.571Z,28.11
2023-05-22T13:35:47.601Z,28.13
2023-05-22T13:36:50.477Z,28.45
2023-05-22T13:37:53.278Z,28.47
2023-05-22T13:38:56.152Z,28.29
2023-05-22T13:39:59.128Z,28.25
2023-05-22T13:41:02.333Z,28.29
2023-05-22T13:42:05.914Z,28.44
2023-05-22T13:43:08.892Z,28.63
2023-05-22T13:44:11.632Z,28.76
2023-05-22T13:45:14.651Z,28.80
2023-05-22T13:46:18.381Z,28.84
2023-05-22T13:47:23.285Z,28.91
2023-05-22T13:48:26.298Z,28.67
2023-05-22T13:49:29.197Z,28.67
2023-05-22T13:50:32.217Z,28.49
2023-05-22T13:51:35.049Z,28.35
2023-05-22T13:52:38.143Z,28.13
2023-05-22T13:53:40.921Z,28.18
2023-05-22T13:54:43.869Z,27.89
2023-05-22T13:55:46.613Z,27.78